Stacja Pogody Warszawa Praga Północ 


Stacja Pogody
Warszawa Praga Północ

 Szerokość N 52° 15 '43"    Długość E 21° 01' 22"    Wysokość 89 m n.p.m.


Wschód Słońca 06:28 Górowanie Słońca 11:19 Zachód Słońca 16:10 skorpion
Data juliańska 2456962.455 Odległość Słońca 148442583 km Średn. kątowa Słońca 0,322°
Wschód Księżyca 13:00 Zachód Księżyca 23:18 Wiek Księżyca 8 dni Moon
Widoczność Księżyca 58,32% Odległość Księżyca 363456 km Średn. kątowa Księżyca 0,329°
Dzień krótszy od najdłuższego o: 07:06 Długość dnia 09:41 Imieniny Urbana, Saturnina, Krzysztofa




Warunki pogodowe uaktualnione 31-10-2014, o godzinie 22:54
Temperatura 5.0 °C ↓ Temperatura odczuwalna 2.3 °C
Punkt rosy 3.2 °C Humidex 3.7 °C
Deszcz na godzinę 0.0 mm Wilgotność względna 88% →
Prędkość wiatru (średnia) 2 km/h → Prędkość wiatru (podmuch) 6 km/h
Kierunek wiatru S Skala Beaufort'a 2
Ciśnienie względne  1027 hPa Trend ciśnienia powolny spadek
Ciśnienie bezwzględne  1014 hPa Podstawa chmur 312.1 m
METAR EPWA 312130Z 16002KT 5000 BR SCT022 01/00 Q1027 BECMG 3000 BR
TAF TAF EPWA 311730Z 3118/0118 VRB02KT CAVOK





 a

Valid XHTML 1.0 Transitional Valid CSS!